sensor_id;sensor_type;location;lat;lon;timestamp;temperature;humidity
7844;DHT22;3967;48.702;9.326;2023-04-16T00:01:54;8.30;99.90
7844;DHT22;3967;48.702;9.326;2023-04-16T00:04:21;8.30;99.90
7844;DHT22;3967;48.702;9.326;2023-04-16T00:06:48;8.30;99.90
7844;DHT22;3967;48.702;9.326;2023-04-16T00:09:15;8.20;99.90
7844;DHT22;3967;48.702;9.326;2023-04-16T00:11:42;8.30;99.90
7844;DHT22;3967;48.702;9.326;2023-04-16T00:14:08;8.30;99.90
7844;DHT22;3967;48.702;9.326;2023-04-16T00:16:35;8.20;99.90
7844;DHT22;3967;48.702;9.326;2023-04-16T00:19:02;8.30;99.90
7844;DHT22;3967;48.702;9.326;2023-04-16T00:21:29;8.20;99.90
7844;DHT22;3967;48.702;9.326;2023-04-16T00:23:56;8.30;99.90
7844;DHT22;3967;48.702;9.326;2023-04-16T00:26:23;8.20;99.90
7844;DHT22;3967;48.702;9.326;2023-04-16T00:28:50;8.30;99.90
7844;DHT22;3967;48.702;9.326;2023-04-16T00:31:16;8.20;99.90
7844;DHT22;3967;48.702;9.326;2023-04-16T00:33:43;8.30;99.90
7844;DHT22;3967;48.702;9.326;2023-04-16T00:36:10;8.20;99.90
7844;DHT22;3967;48.702;9.326;2023-04-16T00:38:36;8.10;99.90
7844;DHT22;3967;48.702;9.326;2023-04-16T00:41:03;8.10;99.90
7844;DHT22;3967;48.702;9.326;2023-04-16T00:43:30;8.10;99.90
7844;DHT22;3967;48.702;9.326;2023-04-16T00:45:57;8.20;99.90
7844;DHT22;3967;48.702;9.326;2023-04-16T00:48:25;8.20;99.90
7844;DHT22;3967;48.702;9.326;2023-04-16T00:50:53;8.10;99.90
7844;DHT22;3967;48.702;9.326;2023-04-16T00:53:21;8.10;99.90
7844;DHT22;3967;48.702;9.326;2023-04-16T00:55:48;8.10;99.90
7844;DHT22;3967;48.702;9.326;2023-04-16T00:58:15;8.10;99.90
7844;DHT22;3967;48.702;9.326;2023-04-16T01:00:41;8.10;99.90
7844;DHT22;3967;48.702;9.326;2023-04-16T01:03:08;8.10;99.90
7844;DHT22;3967;48.702;9.326;2023-04-16T01:05:36;8.10;99.90
7844;DHT22;3967;48.702;9.326;2023-04-16T01:08:03;8.00;99.90
7844;DHT22;3967;48.702;9.326;2023-04-16T01:10:29;8.00;99.90
7844;DHT22;3967;48.702;9.326;2023-04-16T01:12:56;8.00;99.90
7844;DHT22;3967;48.702;9.326;2023-04-16T01:15:23;8.10;99.90
7844;DHT22;3967;48.702;9.326;2023-04-16T01:17:49;8.10;99.90
7844;DHT22;3967;48.702;9.326;2023-04-16T01:20:16;8.10;99.90
7844;DHT22;3967;48.702;9.326;2023-04-16T01:22:43;8.10;99.90
7844;DHT22;3967;48.702;9.326;2023-04-16T01:25:13;8.20;99.90
7844;DHT22;3967;48.702;9.326;2023-04-16T01:27:40;8.20;99.90
7844;DHT22;3967;48.702;9.326;2023-04-16T01:30:07;8.20;99.90
7844;DHT22;3967;48.702;9.326;2023-04-16T01:32:34;8.20;99.90
7844;DHT22;3967;48.702;9.326;2023-04-16T01:35:00;8.10;99.90
7844;DHT22;3967;48.702;9.326;2023-04-16T01:37:27;8.20;99.90
7844;DHT22;3967;48.702;9.326;2023-04-16T01:39:54;8.30;99.90
7844;DHT22;3967;48.702;9.326;2023-04-16T01:42:21;8.20;99.90
7844;DHT22;3967;48.702;9.326;2023-04-16T01:44:48;8.30;99.90
7844;DHT22;3967;48.702;9.326;2023-04-16T01:47:14;8.30;99.90
7844;DHT22;3967;48.702;9.326;2023-04-16T01:49:42;8.20;99.90
7844;DHT22;3967;48.702;9.326;2023-04-16T01:52:11;8.20;99.90
7844;DHT22;3967;48.702;9.326;2023-04-16T01:54:37;8.20;99.90
7844;DHT22;3967;48.702;9.326;2023-04-16T01:57:04;8.20;99.90
7844;DHT22;3967;48.702;9.326;2023-04-16T01:59:31;8.20;99.90
7844;DHT22;3967;48.702;9.326;2023-04-16T02:02:12;8.20;99.90
7844;DHT22;3967;48.702;9.326;2023-04-16T02:04:40;8.20;99.90
7844;DHT22;3967;48.702;9.326;2023-04-16T02:07:10;8.30;99.90
7844;DHT22;3967;48.702;9.326;2023-04-16T02:09:45;8.30;99.90
7844;DHT22;3967;48.702;9.326;2023-04-16T02:12:12;8.20;99.90
7844;DHT22;3967;48.702;9.326;2023-04-16T02:14:39;8.20;99.90
7844;DHT22;3967;48.702;9.326;2023-04-16T02:17:06;8.20;99.90
7844;DHT22;3967;48.702;9.326;2023-04-16T02:19:33;8.20;99.90
7844;DHT22;3967;48.702;9.326;2023-04-16T02:22:00;8.20;99.90
7844;DHT22;3967;48.702;9.326;2023-04-16T02:24:29;8.30;99.90
7844;DHT22;3967;48.702;9.326;2023-04-16T02:26:59;8.20;99.90
7844;DHT22;3967;48.702;9.326;2023-04-16T02:29:26;8.20;99.90
7844;DHT22;3967;48.702;9.326;2023-04-16T02:31:52;8.30;99.90
7844;DHT22;3967;48.702;9.326;2023-04-16T02:34:19;8.20;99.90
7844;DHT22;3967;48.702;9.326;2023-04-16T02:36:46;8.30;99.90
7844;DHT22;3967;48.702;9.326;2023-04-16T02:39:13;8.30;99.90
7844;DHT22;3967;48.702;9.326;2023-04-16T02:41:40;8.30;99.90
7844;DHT22;3967;48.702;9.326;2023-04-16T02:44:06;8.30;99.90
7844;DHT22;3967;48.702;9.326;2023-04-16T02:46:33;8.30;99.90
7844;DHT22;3967;48.702;9.326;2023-04-16T02:49:00;8.20;99.90
7844;DHT22;3967;48.702;9.326;2023-04-16T02:51:26;8.20;99.90
7844;DHT22;3967;48.702;9.326;2023-04-16T02:53:53;8.20;99.90
7844;DHT22;3967;48.702;9.326;2023-04-16T02:56:20;8.20;99.90
7844;DHT22;3967;48.702;9.326;2023-04-16T02:58:46;8.20;99.90
7844;DHT22;3967;48.702;9.326;2023-04-16T03:01:13;8.20;99.90
7844;DHT22;3967;48.702;9.326;2023-04-16T03:03:40;8.20;99.90
7844;DHT22;3967;48.702;9.326;2023-04-16T03:06:06;8.20;99.90
7844;DHT22;3967;48.702;9.326;2023-04-16T03:08:33;8.20;99.90
7844;DHT22;3967;48.702;9.326;2023-04-16T03:11:00;8.30;99.90
7844;DHT22;3967;48.702;9.326;2023-04-16T03:13:27;8.20;99.90
7844;DHT22;3967;48.702;9.326;2023-04-16T03:15:53;8.30;99.90
7844;DHT22;3967;48.702;9.326;2023-04-16T03:18:20;8.20;99.90
7844;DHT22;3967;48.702;9.326;2023-04-16T03:20:51;8.20;99.90
7844;DHT22;3967;48.702;9.326;2023-04-16T03:23:18;8.10;99.90
7844;DHT22;3967;48.702;9.326;2023-04-16T03:25:45;8.10;99.90
7844;DHT22;3967;48.702;9.326;2023-04-16T03:28:13;8.20;99.90
7844;DHT22;3967;48.702;9.326;2023-04-16T03:30:40;8.30;99.90
7844;DHT22;3967;48.702;9.326;2023-04-16T03:33:07;8.20;99.90
7844;DHT22;3967;48.702;9.326;2023-04-16T03:35:33;8.20;99.90
7844;DHT22;3967;48.702;9.326;2023-04-16T03:38:00;8.20;99.90
7844;DHT22;3967;48.702;9.326;2023-04-16T03:40:27;8.20;99.90
7844;DHT22;3967;48.702;9.326;2023-04-16T03:42:54;8.10;99.90
7844;DHT22;3967;48.702;9.326;2023-04-16T03:45:21;8.20;99.90
7844;DHT22;3967;48.702;9.326;2023-04-16T03:47:47;8.10;99.90
7844;DHT22;3967;48.702;9.326;2023-04-16T03:50:18;8.10;99.90
7844;DHT22;3967;48.702;9.326;2023-04-16T03:52:45;8.10;99.90
7844;DHT22;3967;48.702;9.326;2023-04-16T03:55:13;8.10;99.90
7844;DHT22;3967;48.702;9.326;2023-04-16T03:57:40;8.10;99.90
7844;DHT22;3967;48.702;9.326;2023-04-16T04:00:07;8.00;99.90
7844;DHT22;3967;48.702;9.326;2023-04-16T04:02:34;7.90;99.90
7844;DHT22;3967;48.702;9.326;2023-04-16T04:05:01;7.90;99.90
7844;DHT22;3967;48.702;9.326;2023-04-16T04:07:28;7.90;99.90
7844;DHT22;3967;48.702;9.326;2023-04-16T04:09:55;7.90;99.90
7844;DHT22;3967;48.702;9.326;2023-04-16T04:12:21;7.90;99.90
7844;DHT22;3967;48.702;9.326;2023-04-16T04:14:48;8.00;99.90
7844;DHT22;3967;48.702;9.326;2023-04-16T04:17:14;7.90;99.90
7844;DHT22;3967;48.702;9.326;2023-04-16T04:19:41;7.90;99.90
7844;DHT22;3967;48.702;9.326;2023-04-16T04:22:26;7.90;99.90
7844;DHT22;3967;48.702;9.326;2023-04-16T04:24:54;7.90;99.90
7844;DHT22;3967;48.702;9.326;2023-04-16T04:27:21;7.80;99.90
7844;DHT22;3967;48.702;9.326;2023-04-16T04:29:48;7.80;99.90
7844;DHT22;3967;48.702;9.326;2023-04-16T04:32:14;7.80;99.90
7844;DHT22;3967;48.702;9.326;2023-04-16T04:34:41;7.80;99.90
7844;DHT22;3967;48.702;9.326;2023-04-16T04:37:08;7.90;99.90
7844;DHT22;3967;48.702;9.326;2023-04-16T04:39:34;7.80;99.90
7844;DHT22;3967;48.702;9.326;2023-04-16T04:42:01;7.90;99.90
7844;DHT22;3967;48.702;9.326;2023-04-16T04:44:28;7.90;99.90
7844;DHT22;3967;48.702;9.326;2023-04-16T04:46:55;7.90;99.90
7844;DHT22;3967;48.702;9.326;2023-04-16T04:49:22;7.90;99.90
7844;DHT22;3967;48.702;9.326;2023-04-16T04:51:48;7.90;99.90
7844;DHT22;3967;48.702;9.326;2023-04-16T04:54:15;7.80;99.90
7844;DHT22;3967;48.702;9.326;2023-04-16T04:56:42;7.80;99.90
7844;DHT22;3967;48.702;9.326;2023-04-16T04:59:11;7.80;99.90
7844;DHT22;3967;48.702;9.326;2023-04-16T05:01:38;7.90;99.90
7844;DHT22;3967;48.702;9.326;2023-04-16T05:04:05;7.90;99.90
7844;DHT22;3967;48.702;9.326;2023-04-16T05:06:31;7.90;99.90
7844;DHT22;3967;48.702;9.326;2023-04-16T05:08:58;7.90;99.90
7844;DHT22;3967;48.702;9.326;2023-04-16T05:11:25;7.90;99.90
7844;DHT22;3967;48.702;9.326;2023-04-16T05:13:52;7.80;99.90
7844;DHT22;3967;48.702;9.326;2023-04-16T05:16:19;7.80;99.90
7844;DHT22;3967;48.702;9.326;2023-04-16T05:18:45;7.90;99.90
7844;DHT22;3967;48.702;9.326;2023-04-16T05:21:12;8.00;99.90
7844;DHT22;3967;48.702;9.326;2023-04-16T05:23:39;7.90;99.90
7844;DHT22;3967;48.702;9.326;2023-04-16T05:26:05;7.80;99.90
7844;DHT22;3967;48.702;9.326;2023-04-16T05:28:32;7.90;99.90
7844;DHT22;3967;48.702;9.326;2023-04-16T05:30:59;7.90;99.90
7844;DHT22;3967;48.702;9.326;2023-04-16T05:33:26;7.80;99.90
7844;DHT22;3967;48.702;9.326;2023-04-16T05:35:52;7.90;99.90
7844;DHT22;3967;48.702;9.326;2023-04-16T05:38:19;7.80;99.90
7844;DHT22;3967;48.702;9.326;2023-04-16T05:40:46;7.90;99.90
7844;DHT22;3967;48.702;9.326;2023-04-16T05:43:12;7.90;99.90
7844;DHT22;3967;48.702;9.326;2023-04-16T05:45:39;7.90;99.90
7844;DHT22;3967;48.702;9.326;2023-04-16T05:48:07;7.90;99.90
7844;DHT22;3967;48.702;9.326;2023-04-16T05:50:37;7.80;99.90
7844;DHT22;3967;48.702;9.326;2023-04-16T05:53:07;7.90;99.90
7844;DHT22;3967;48.702;9.326;2023-04-16T05:55:34;7.90;99.90
7844;DHT22;3967;48.702;9.326;2023-04-16T05:58:04;7.90;99.90
7844;DHT22;3967;48.702;9.326;2023-04-16T06:00:34;7.80;99.90
7844;DHT22;3967;48.702;9.326;2023-04-16T06:03:01;7.80;99.90
7844;DHT22;3967;48.702;9.326;2023-04-16T06:05:28;7.80;99.90
7844;DHT22;3967;48.702;9.326;2023-04-16T06:07:55;7.90;99.90
7844;DHT22;3967;48.702;9.326;2023-04-16T06:10:22;7.90;99.90
7844;DHT22;3967;48.702;9.326;2023-04-16T06:12:49;8.00;99.90
7844;DHT22;3967;48.702;9.326;2023-04-16T06:15:15;8.00;99.90
7844;DHT22;3967;48.702;9.326;2023-04-16T06:17:42;8.00;99.90
7844;DHT22;3967;48.702;9.326;2023-04-16T06:20:10;8.10;99.90
7844;DHT22;3967;48.702;9.326;2023-04-16T06:22:36;8.10;99.90
7844;DHT22;3967;48.702;9.326;2023-04-16T06:25:06;8.00;99.90
7844;DHT22;3967;48.702;9.326;2023-04-16T06:27:33;8.00;99.90
7844;DHT22;3967;48.702;9.326;2023-04-16T06:29:59;7.90;99.90
7844;DHT22;3967;48.702;9.326;2023-04-16T06:32:26;7.90;99.90
7844;DHT22;3967;48.702;9.326;2023-04-16T06:34:53;8.00;99.90
7844;DHT22;3967;48.702;9.326;2023-04-16T06:37:20;8.00;99.90
7844;DHT22;3967;48.702;9.326;2023-04-16T06:39:46;8.00;99.90
7844;DHT22;3967;48.702;9.326;2023-04-16T06:42:13;8.00;99.90
7844;DHT22;3967;48.702;9.326;2023-04-16T06:44:40;8.10;99.90
7844;DHT22;3967;48.702;9.326;2023-04-16T06:47:07;8.00;99.90
7844;DHT22;3967;48.702;9.326;2023-04-16T06:49:33;8.00;99.90
7844;DHT22;3967;48.702;9.326;2023-04-16T06:52:01;8.00;99.90
7844;DHT22;3967;48.702;9.326;2023-04-16T06:54:31;8.00;99.90
7844;DHT22;3967;48.702;9.326;2023-04-16T06:56:58;8.10;99.90
7844;DHT22;3967;48.702;9.326;2023-04-16T06:59:24;8.10;99.90
7844;DHT22;3967;48.702;9.326;2023-04-16T07:01:51;8.20;99.90
7844;DHT22;3967;48.702;9.326;2023-04-16T07:04:18;8.10;99.90
7844;DHT22;3967;48.702;9.326;2023-04-16T07:06:45;8.00;99.90
7844;DHT22;3967;48.702;9.326;2023-04-16T07:09:12;8.00;99.90
7844;DHT22;3967;48.702;9.326;2023-04-16T07:11:39;8.00;99.90
7844;DHT22;3967;48.702;9.326;2023-04-16T07:14:06;8.00;99.90
7844;DHT22;3967;48.702;9.326;2023-04-16T07:16:33;8.00;99.90
7844;DHT22;3967;48.702;9.326;2023-04-16T07:18:59;8.00;99.90
7844;DHT22;3967;48.702;9.326;2023-04-16T07:21:26;8.10;99.90
7844;DHT22;3967;48.702;9.326;2023-04-16T07:23:53;8.00;99.90
7844;DHT22;3967;48.702;9.326;2023-04-16T07:26:19;8.00;99.90
7844;DHT22;3967;48.702;9.326;2023-04-16T07:28:46;8.20;99.90
7844;DHT22;3967;48.702;9.326;2023-04-16T07:31:13;8.20;99.90
7844;DHT22;3967;48.702;9.326;2023-04-16T07:33:39;8.10;99.90
7844;DHT22;3967;48.702;9.326;2023-04-16T07:36:06;8.20;99.90
7844;DHT22;3967;48.702;9.326;2023-04-16T07:38:33;8.30;99.90
7844;DHT22;3967;48.702;9.326;2023-04-16T07:41:00;8.30;99.90
7844;DHT22;3967;48.702;9.326;2023-04-16T07:43:27;8.30;99.90
7844;DHT22;3967;48.702;9.326;2023-04-16T07:45:53;8.20;99.90
7844;DHT22;3967;48.702;9.326;2023-04-16T07:48:21;8.20;99.90
7844;DHT22;3967;48.702;9.326;2023-04-16T07:50:47;8.30;99.90
7844;DHT22;3967;48.702;9.326;2023-04-16T07:53:15;8.20;99.90
7844;DHT22;3967;48.702;9.326;2023-04-16T07:55:42;8.30;99.90
7844;DHT22;3967;48.702;9.326;2023-04-16T07:58:09;8.30;99.90
7844;DHT22;3967;48.702;9.326;2023-04-16T08:00:36;8.30;99.90
7844;DHT22;3967;48.702;9.326;2023-04-16T08:03:02;8.30;99.90
7844;DHT22;3967;48.702;9.326;2023-04-16T08:05:29;8.30;99.90
7844;DHT22;3967;48.702;9.326;2023-04-16T08:07:56;8.30;99.90
7844;DHT22;3967;48.702;9.326;2023-04-16T08:10:23;8.30;99.90
7844;DHT22;3967;48.702;9.326;2023-04-16T08:12:50;8.30;99.90
7844;DHT22;3967;48.702;9.326;2023-04-16T08:15:16;8.50;99.90
7844;DHT22;3967;48.702;9.326;2023-04-16T08:17:43;8.50;99.90
7844;DHT22;3967;48.702;9.326;2023-04-16T08:20:10;8.60;99.90
7844;DHT22;3967;48.702;9.326;2023-04-16T08:22:42;8.60;99.90
7844;DHT22;3967;48.702;9.326;2023-04-16T08:25:10;8.50;99.90
7844;DHT22;3967;48.702;9.326;2023-04-16T08:27:36;8.50;99.90
7844;DHT22;3967;48.702;9.326;2023-04-16T08:30:03;8.40;99.90
7844;DHT22;3967;48.702;9.326;2023-04-16T08:32:30;8.40;99.90
7844;DHT22;3967;48.702;9.326;2023-04-16T08:34:57;8.40;99.90
7844;DHT22;3967;48.702;9.326;2023-04-16T08:37:24;8.40;99.90
7844;DHT22;3967;48.702;9.326;2023-04-16T08:39:51;8.30;99.90
7844;DHT22;3967;48.702;9.326;2023-04-16T08:42:25;8.30;99.90
7844;DHT22;3967;48.702;9.326;2023-04-16T08:45:06;8.40;99.90
7844;DHT22;3967;48.702;9.326;2023-04-16T08:47:36;8.40;99.90
7844;DHT22;3967;48.702;9.326;2023-04-16T08:50:05;8.40;99.90
7844;DHT22;3967;48.702;9.326;2023-04-16T08:52:34;8.40;99.90
7844;DHT22;3967;48.702;9.326;2023-04-16T08:55:11;8.50;99.90
7844;DHT22;3967;48.702;9.326;2023-04-16T08:57:44;8.40;99.90
7844;DHT22;3967;48.702;9.326;2023-04-16T09:00:13;8.40;99.90
7844;DHT22;3967;48.702;9.326;2023-04-16T09:02:40;8.50;99.90
7844;DHT22;3967;48.702;9.326;2023-04-16T09:05:09;8.50;99.90
7844;DHT22;3967;48.702;9.326;2023-04-16T09:07:36;8.50;99.90
7844;DHT22;3967;48.702;9.326;2023-04-16T09:10:06;8.60;99.90
7844;DHT22;3967;48.702;9.326;2023-04-16T09:12:34;8.50;99.90
7844;DHT22;3967;48.702;9.326;2023-04-16T09:15:01;8.50;99.90
7844;DHT22;3967;48.702;9.326;2023-04-16T09:17:29;8.60;99.90
7844;DHT22;3967;48.702;9.326;2023-04-16T09:19:56;8.60;99.90
7844;DHT22;3967;48.702;9.326;2023-04-16T09:22:23;8.60;99.90
7844;DHT22;3967;48.702;9.326;2023-04-16T09:24:50;8.60;99.90
7844;DHT22;3967;48.702;9.326;2023-04-16T09:27:17;8.60;99.90
7844;DHT22;3967;48.702;9.326;2023-04-16T09:29:44;8.60;99.90
7844;DHT22;3967;48.702;9.326;2023-04-16T09:32:11;8.60;99.90
7844;DHT22;3967;48.702;9.326;2023-04-16T09:35:07;8.60;99.90
7844;DHT22;3967;48.702;9.326;2023-04-16T09:37:34;8.60;99.90
7844;DHT22;3967;48.702;9.326;2023-04-16T09:40:02;8.60;99.90
7844;DHT22;3967;48.702;9.326;2023-04-16T09:42:35;8.70;99.90
7844;DHT22;3967;48.702;9.326;2023-04-16T09:45:02;8.70;99.90
7844;DHT22;3967;48.702;9.326;2023-04-16T09:47:42;8.70;99.90
7844;DHT22;3967;48.702;9.326;2023-04-16T09:50:15;8.70;99.90
7844;DHT22;3967;48.702;9.326;2023-04-16T09:52:47;8.60;99.90
7844;DHT22;3967;48.702;9.326;2023-04-16T09:55:14;8.60;99.90
7844;DHT22;3967;48.702;9.326;2023-04-16T09:57:41;8.70;99.90
7844;DHT22;3967;48.702;9.326;2023-04-16T10:00:09;8.70;99.90
7844;DHT22;3967;48.702;9.326;2023-04-16T10:02:39;8.70;99.90
7844;DHT22;3967;48.702;9.326;2023-04-16T10:05:08;8.70;99.90
7844;DHT22;3967;48.702;9.326;2023-04-16T10:07:36;8.80;99.90
7844;DHT22;3967;48.702;9.326;2023-04-16T10:10:03;8.80;99.90
7844;DHT22;3967;48.702;9.326;2023-04-16T10:12:30;8.80;99.90
7844;DHT22;3967;48.702;9.326;2023-04-16T10:14:58;8.70;99.90
7844;DHT22;3967;48.702;9.326;2023-04-16T10:17:25;8.80;99.90
7844;DHT22;3967;48.702;9.326;2023-04-16T10:19:56;8.80;99.90
7844;DHT22;3967;48.702;9.326;2023-04-16T10:22:23;8.90;99.90
7844;DHT22;3967;48.702;9.326;2023-04-16T10:24:51;8.90;99.90
7844;DHT22;3967;48.702;9.326;2023-04-16T10:27:18;8.90;99.90
7844;DHT22;3967;48.702;9.326;2023-04-16T10:29:46;8.80;99.90
7844;DHT22;3967;48.702;9.326;2023-04-16T10:32:13;8.80;99.90
7844;DHT22;3967;48.702;9.326;2023-04-16T10:34:40;8.80;99.90
7844;DHT22;3967;48.702;9.326;2023-04-16T10:37:07;8.80;99.90
7844;DHT22;3967;48.702;9.326;2023-04-16T10:39:35;8.80;99.90
7844;DHT22;3967;48.702;9.326;2023-04-16T10:42:08;9.00;99.90
7844;DHT22;3967;48.702;9.326;2023-04-16T10:44:35;9.10;99.90
7844;DHT22;3967;48.702;9.326;2023-04-16T10:47:09;9.10;99.90
7844;DHT22;3967;48.702;9.326;2023-04-16T10:49:38;9.10;99.90
7844;DHT22;3967;48.702;9.326;2023-04-16T10:52:15;9.20;99.90
7844;DHT22;3967;48.702;9.326;2023-04-16T10:54:45;9.10;99.90
7844;DHT22;3967;48.702;9.326;2023-04-16T10:57:18;9.20;99.90
7844;DHT22;3967;48.702;9.326;2023-04-16T10:59:47;9.10;99.90
7844;DHT22;3967;48.702;9.326;2023-04-16T11:02:16;9.20;99.90
7844;DHT22;3967;48.702;9.326;2023-04-16T11:04:45;9.20;99.90
7844;DHT22;3967;48.702;9.326;2023-04-16T11:07:16;9.30;99.90
7844;DHT22;3967;48.702;9.326;2023-04-16T11:09:59;9.20;99.90
7844;DHT22;3967;48.702;9.326;2023-04-16T11:12:34;9.10;99.90
7844;DHT22;3967;48.702;9.326;2023-04-16T11:15:10;9.20;99.90
7844;DHT22;3967;48.702;9.326;2023-04-16T11:20:06;9.10;99.90
7844;DHT22;3967;48.702;9.326;2023-04-16T11:22:47;9.20;99.90
7844;DHT22;3967;48.702;9.326;2023-04-16T11:25:28;9.10;99.90
7844;DHT22;3967;48.702;9.326;2023-04-16T11:27:56;9.10;99.90
7844;DHT22;3967;48.702;9.326;2023-04-16T11:30:34;9.10;99.90
7844;DHT22;3967;48.702;9.326;2023-04-16T11:33:02;9.20;99.90
7844;DHT22;3967;48.702;9.326;2023-04-16T11:35:30;9.10;99.90
7844;DHT22;3967;48.702;9.326;2023-04-16T11:37:57;9.20;99.90
7844;DHT22;3967;48.702;9.326;2023-04-16T11:40:28;9.30;99.90
7844;DHT22;3967;48.702;9.326;2023-04-16T11:42:55;9.10;99.90
7844;DHT22;3967;48.702;9.326;2023-04-16T11:45:24;9.20;99.90
7844;DHT22;3967;48.702;9.326;2023-04-16T11:47:52;9.20;99.90
7844;DHT22;3967;48.702;9.326;2023-04-16T11:50:24;9.10;99.90
7844;DHT22;3967;48.702;9.326;2023-04-16T11:52:53;9.10;99.90
7844;DHT22;3967;48.702;9.326;2023-04-16T11:55:21;9.10;99.90
7844;DHT22;3967;48.702;9.326;2023-04-16T11:57:48;9.10;99.90
7844;DHT22;3967;48.702;9.326;2023-04-16T12:00:17;9.00;99.90
7844;DHT22;3967;48.702;9.326;2023-04-16T12:02:51;9.20;99.90
7844;DHT22;3967;48.702;9.326;2023-04-16T12:05:35;9.20;99.90
7844;DHT22;3967;48.702;9.326;2023-04-16T12:08:06;9.30;99.90
7844;DHT22;3967;48.702;9.326;2023-04-16T12:10:35;9.30;99.90
7844;DHT22;3967;48.702;9.326;2023-04-16T12:13:28;9.30;99.90
7844;DHT22;3967;48.702;9.326;2023-04-16T12:15:56;9.30;99.90
7844;DHT22;3967;48.702;9.326;2023-04-16T12:18:24;9.20;99.90
7844;DHT22;3967;48.702;9.326;2023-04-16T12:20:53;9.30;99.90
7844;DHT22;3967;48.702;9.326;2023-04-16T12:23:29;9.40;99.90
7844;DHT22;3967;48.702;9.326;2023-04-16T12:25:56;9.30;99.90
7844;DHT22;3967;48.702;9.326;2023-04-16T12:28:33;9.40;99.90
7844;DHT22;3967;48.702;9.326;2023-04-16T12:31:03;9.30;99.90
7844;DHT22;3967;48.702;9.326;2023-04-16T12:33:30;9.30;99.90
7844;DHT22;3967;48.702;9.326;2023-04-16T12:35:57;9.40;99.90
7844;DHT22;3967;48.702;9.326;2023-04-16T12:38:24;9.40;99.90
7844;DHT22;3967;48.702;9.326;2023-04-16T12:40:52;9.40;99.90
7844;DHT22;3967;48.702;9.326;2023-04-16T12:43:22;9.40;99.90
7844;DHT22;3967;48.702;9.326;2023-04-16T12:45:49;9.40;99.90
7844;DHT22;3967;48.702;9.326;2023-04-16T12:48:16;9.40;99.90
7844;DHT22;3967;48.702;9.326;2023-04-16T12:50:43;9.40;99.90
7844;DHT22;3967;48.702;9.326;2023-04-16T12:53:10;9.40;99.90
7844;DHT22;3967;48.702;9.326;2023-04-16T12:55:37;9.50;99.90
7844;DHT22;3967;48.702;9.326;2023-04-16T12:58:04;9.50;99.90
7844;DHT22;3967;48.702;9.326;2023-04-16T13:00:31;9.60;99.90
7844;DHT22;3967;48.702;9.326;2023-04-16T13:02:58;9.60;99.90
7844;DHT22;3967;48.702;9.326;2023-04-16T13:05:25;9.50;99.90
7844;DHT22;3967;48.702;9.326;2023-04-16T13:07:53;9.60;99.90
7844;DHT22;3967;48.702;9.326;2023-04-16T13:10:20;9.60;99.90
7844;DHT22;3967;48.702;9.326;2023-04-16T13:12:47;9.60;99.90
7844;DHT22;3967;48.702;9.326;2023-04-16T13:15:14;9.60;99.90
7844;DHT22;3967;48.702;9.326;2023-04-16T13:17:41;9.60;99.90
7844;DHT22;3967;48.702;9.326;2023-04-16T13:20:08;9.60;99.90
7844;DHT22;3967;48.702;9.326;2023-04-16T13:22:36;9.60;99.90
7844;DHT22;3967;48.702;9.326;2023-04-16T13:25:03;9.40;99.90
7844;DHT22;3967;48.702;9.326;2023-04-16T13:27:30;9.30;99.90
7844;DHT22;3967;48.702;9.326;2023-04-16T13:29:58;9.30;99.90
7844;DHT22;3967;48.702;9.326;2023-04-16T13:32:25;9.40;99.90
7844;DHT22;3967;48.702;9.326;2023-04-16T13:34:51;9.30;99.90
7844;DHT22;3967;48.702;9.326;2023-04-16T13:37:18;9.40;99.90
7844;DHT22;3967;48.702;9.326;2023-04-16T13:39:45;9.50;99.90
7844;DHT22;3967;48.702;9.326;2023-04-16T13:42:13;9.50;99.90
7844;DHT22;3967;48.702;9.326;2023-04-16T13:44:40;9.60;99.90
7844;DHT22;3967;48.702;9.326;2023-04-16T13:47:07;9.60;99.90
7844;DHT22;3967;48.702;9.326;2023-04-16T13:49:34;9.70;99.90
7844;DHT22;3967;48.702;9.326;2023-04-16T13:52:02;9.70;99.90
7844;DHT22;3967;48.702;9.326;2023-04-16T13:54:29;9.70;99.90
7844;DHT22;3967;48.702;9.326;2023-04-16T13:56:56;9.60;99.90
7844;DHT22;3967;48.702;9.326;2023-04-16T13:59:23;9.60;99.90
7844;DHT22;3967;48.702;9.326;2023-04-16T14:01:50;9.50;99.90
7844;DHT22;3967;48.702;9.326;2023-04-16T14:04:17;9.50;99.90
7844;DHT22;3967;48.702;9.326;2023-04-16T14:06:44;9.50;99.90
7844;DHT22;3967;48.702;9.326;2023-04-16T14:09:11;9.50;99.90
7844;DHT22;3967;48.702;9.326;2023-04-16T14:11:39;9.50;99.90
7844;DHT22;3967;48.702;9.326;2023-04-16T14:14:05;9.50;99.90
7844;DHT22;3967;48.702;9.326;2023-04-16T14:16:33;9.50;99.90
7844;DHT22;3967;48.702;9.326;2023-04-16T14:19:01;9.50;99.90
7844;DHT22;3967;48.702;9.326;2023-04-16T14:21:29;9.60;99.90
7844;DHT22;3967;48.702;9.326;2023-04-16T14:23:56;9.50;99.90
7844;DHT22;3967;48.702;9.326;2023-04-16T14:26:23;9.50;99.90
7844;DHT22;3967;48.702;9.326;2023-04-16T14:28:50;9.60;99.90
7844;DHT22;3967;48.702;9.326;2023-04-16T14:31:17;9.60;99.90
7844;DHT22;3967;48.702;9.326;2023-04-16T14:33:45;9.50;99.90
7844;DHT22;3967;48.702;9.326;2023-04-16T14:36:12;9.50;99.90
7844;DHT22;3967;48.702;9.326;2023-04-16T14:38:39;9.50;99.90
7844;DHT22;3967;48.702;9.326;2023-04-16T14:41:08;9.40;99.90
7844;DHT22;3967;48.702;9.326;2023-04-16T14:43:37;9.40;99.90
7844;DHT22;3967;48.702;9.326;2023-04-16T14:46:06;9.50;99.90
7844;DHT22;3967;48.702;9.326;2023-04-16T14:48:33;9.50;99.90
7844;DHT22;3967;48.702;9.326;2023-04-16T14:51:00;9.50;99.90
7844;DHT22;3967;48.702;9.326;2023-04-16T14:53:27;9.50;99.90
7844;DHT22;3967;48.702;9.326;2023-04-16T14:55:54;9.50;99.90
7844;DHT22;3967;48.702;9.326;2023-04-16T14:58:24;9.50;99.90
7844;DHT22;3967;48.702;9.326;2023-04-16T15:00:52;9.50;99.90
7844;DHT22;3967;48.702;9.326;2023-04-16T15:03:19;9.50;99.90
7844;DHT22;3967;48.702;9.326;2023-04-16T15:05:46;9.50;99.90
7844;DHT22;3967;48.702;9.326;2023-04-16T15:08:21;9.50;99.90
7844;DHT22;3967;48.702;9.326;2023-04-16T15:10:48;9.60;99.90
7844;DHT22;3967;48.702;9.326;2023-04-16T15:13:16;9.60;99.90
7844;DHT22;3967;48.702;9.326;2023-04-16T15:15:43;9.60;99.90
7844;DHT22;3967;48.702;9.326;2023-04-16T15:18:10;9.50;99.90
7844;DHT22;3967;48.702;9.326;2023-04-16T15:20:37;9.40;99.90
7844;DHT22;3967;48.702;9.326;2023-04-16T15:23:04;9.50;99.90
7844;DHT22;3967;48.702;9.326;2023-04-16T15:25:31;9.50;99.90
7844;DHT22;3967;48.702;9.326;2023-04-16T15:27:58;9.50;99.90
7844;DHT22;3967;48.702;9.326;2023-04-16T15:30:25;9.50;99.90
7844;DHT22;3967;48.702;9.326;2023-04-16T15:32:52;9.50;99.90
7844;DHT22;3967;48.702;9.326;2023-04-16T15:35:20;9.50;99.90
7844;DHT22;3967;48.702;9.326;2023-04-16T15:37:47;9.40;99.90
7844;DHT22;3967;48.702;9.326;2023-04-16T15:40:14;9.50;99.90
7844;DHT22;3967;48.702;9.326;2023-04-16T15:42:44;9.40;99.90
7844;DHT22;3967;48.702;9.326;2023-04-16T15:45:11;9.40;99.90
7844;DHT22;3967;48.702;9.326;2023-04-16T15:47:38;9.50;99.90
7844;DHT22;3967;48.702;9.326;2023-04-16T15:50:07;9.50;99.90
7844;DHT22;3967;48.702;9.326;2023-04-16T15:52:34;9.50;99.90
7844;DHT22;3967;48.702;9.326;2023-04-16T15:55:02;9.50;99.90
7844;DHT22;3967;48.702;9.326;2023-04-16T15:57:30;9.40;99.90
7844;DHT22;3967;48.702;9.326;2023-04-16T15:59:56;9.40;99.90
7844;DHT22;3967;48.702;9.326;2023-04-16T16:02:26;9.40;99.90
7844;DHT22;3967;48.702;9.326;2023-04-16T16:04:55;9.40;99.90
7844;DHT22;3967;48.702;9.326;2023-04-16T16:07:22;9.40;99.90
7844;DHT22;3967;48.702;9.326;2023-04-16T16:09:50;9.40;99.90
7844;DHT22;3967;48.702;9.326;2023-04-16T16:12:18;9.30;99.90
7844;DHT22;3967;48.702;9.326;2023-04-16T16:14:45;9.40;99.90
7844;DHT22;3967;48.702;9.326;2023-04-16T16:19:41;9.50;99.90
7844;DHT22;3967;48.702;9.326;2023-04-16T16:22:11;9.40;99.90
7844;DHT22;3967;48.702;9.326;2023-04-16T16:24:38;9.40;99.90
7844;DHT22;3967;48.702;9.326;2023-04-16T16:27:05;9.40;99.90